sensor_id;sensor_type;location;lat;lon;timestamp;pressure;altitude;pressure_sealevel;temperature;humidity
69717;BME280;67420;46.144;19.666;2023-11-21T00:09:52;99791.28;;;21.32;57.44
69717;BME280;67420;46.144;19.666;2023-11-21T00:19:57;99788.78;;;21.30;57.23
69717;BME280;67420;46.144;19.666;2023-11-21T00:29:58;99782.38;;;21.31;57.23
69717;BME280;67420;46.144;19.666;2023-11-21T00:40:01;99787.59;;;21.33;57.25
69717;BME280;67420;46.144;19.666;2023-11-21T00:50:06;99776.88;;;21.33;57.34
69717;BME280;67420;46.144;19.666;2023-11-21T01:00:09;99770.69;;;21.32;57.16
69717;BME280;67420;46.144;19.666;2023-11-21T01:10:15;99762.91;;;21.39;56.92
69717;BME280;67420;46.144;19.666;2023-11-21T01:20:19;99741.31;;;21.41;57.12
69717;BME280;67420;46.144;19.666;2023-11-21T01:30:21;99728.47;;;21.44;56.81
69717;BME280;67420;46.144;19.666;2023-11-21T01:40:23;99719.28;;;21.47;56.86
69717;BME280;67420;46.144;19.666;2023-11-21T01:50:26;99709.97;;;21.51;56.96
69717;BME280;67420;46.144;19.666;2023-11-21T02:00:28;99711.50;;;21.53;56.43
69717;BME280;67420;46.144;19.666;2023-11-21T02:10:32;99704.31;;;21.54;56.97
69717;BME280;67420;46.144;19.666;2023-11-21T02:20:34;99704.84;;;21.57;56.53
69717;BME280;67420;46.144;19.666;2023-11-21T02:30:36;99688.47;;;21.60;56.53
69717;BME280;67420;46.144;19.666;2023-11-21T02:40:38;99700.56;;;21.64;56.69
69717;BME280;67420;46.144;19.666;2023-11-21T02:50:40;99704.81;;;21.67;56.24
69717;BME280;67420;46.144;19.666;2023-11-21T03:00:44;99694.06;;;21.67;56.26
69717;BME280;67420;46.144;19.666;2023-11-21T03:10:46;99674.88;;;21.72;56.35
69717;BME280;67420;46.144;19.666;2023-11-21T03:20:48;99659.47;;;21.74;56.11
69717;BME280;67420;46.144;19.666;2023-11-21T03:30:49;99668.22;;;21.76;56.23
69717;BME280;67420;46.144;19.666;2023-11-21T03:40:51;99655.34;;;21.79;56.21
69717;BME280;67420;46.144;19.666;2023-11-21T03:50:53;99652.50;;;21.81;55.98
69717;BME280;67420;46.144;19.666;2023-11-21T04:00:55;99656.03;;;21.81;56.05
69717;BME280;67420;46.144;19.666;2023-11-21T04:10:57;99672.78;;;21.83;56.06
69717;BME280;67420;46.144;19.666;2023-11-21T04:20:59;99657.25;;;21.87;56.33
69717;BME280;67420;46.144;19.666;2023-11-21T04:31:01;99648.34;;;21.86;56.21
69717;BME280;67420;46.144;19.666;2023-11-21T04:41:03;99640.59;;;21.83;56.23
69717;BME280;67420;46.144;19.666;2023-11-21T04:51:06;99651.88;;;21.87;56.22
69717;BME280;67420;46.144;19.666;2023-11-21T05:01:08;99650.75;;;21.89;55.98
69717;BME280;67420;46.144;19.666;2023-11-21T05:11:10;99663.00;;;21.92;55.95
69717;BME280;67420;46.144;19.666;2023-11-21T05:21:12;99683.47;;;21.93;56.02
69717;BME280;67420;46.144;19.666;2023-11-21T05:31:14;99689.69;;;21.93;55.99
69717;BME280;67420;46.144;19.666;2023-11-21T05:41:17;99701.41;;;21.92;56.21
69717;BME280;67420;46.144;19.666;2023-11-21T05:51:19;99694.50;;;21.90;56.08
69717;BME280;67420;46.144;19.666;2023-11-21T06:01:22;99692.38;;;21.93;55.94
69717;BME280;67420;46.144;19.666;2023-11-21T06:11:24;99707.34;;;21.96;56.36
69717;BME280;67420;46.144;19.666;2023-11-21T06:21:26;99731.63;;;21.94;56.09
69717;BME280;67420;46.144;19.666;2023-11-21T06:31:31;99794.19;;;21.95;56.17
69717;BME280;67420;46.144;19.666;2023-11-21T06:41:34;99793.34;;;21.94;56.05
69717;BME280;67420;46.144;19.666;2023-11-21T06:51:36;99797.88;;;21.94;55.94
69717;BME280;67420;46.144;19.666;2023-11-21T07:01:38;99804.94;;;21.95;56.20
69717;BME280;67420;46.144;19.666;2023-11-21T07:11:42;99789.66;;;21.95;56.14
69717;BME280;67420;46.144;19.666;2023-11-21T07:21:44;99781.63;;;21.95;56.04
69717;BME280;67420;46.144;19.666;2023-11-21T07:31:46;99800.25;;;21.97;56.25
69717;BME280;67420;46.144;19.666;2023-11-21T07:41:48;99810.28;;;21.95;56.32
69717;BME280;67420;46.144;19.666;2023-11-21T07:51:51;99776.63;;;22.10;57.26
69717;BME280;67420;46.144;19.666;2023-11-21T08:01:54;99767.84;;;22.18;57.69
69717;BME280;67420;46.144;19.666;2023-11-21T08:11:56;99763.00;;;22.21;57.22
69717;BME280;67420;46.144;19.666;2023-11-21T08:21:58;99759.22;;;22.14;57.18
69717;BME280;67420;46.144;19.666;2023-11-21T08:32:00;99753.72;;;22.16;57.22
69717;BME280;67420;46.144;19.666;2023-11-21T08:42:03;99727.41;;;22.19;57.44
69717;BME280;67420;46.144;19.666;2023-11-21T08:52:05;99715.22;;;22.25;57.90
69717;BME280;67420;46.144;19.666;2023-11-21T09:02:08;99672.13;;;22.26;58.00
69717;BME280;67420;46.144;19.666;2023-11-21T09:12:10;99680.50;;;22.23;57.71
69717;BME280;67420;46.144;19.666;2023-11-21T09:22:14;99647.88;;;22.18;57.39
69717;BME280;67420;46.144;19.666;2023-11-21T09:32:15;99664.97;;;22.17;57.81
69717;BME280;67420;46.144;19.666;2023-11-21T09:42:25;99641.81;;;22.16;57.63
69717;BME280;67420;46.144;19.666;2023-11-21T09:52:28;99632.78;;;22.17;57.49
69717;BME280;67420;46.144;19.666;2023-11-21T10:02:33;99629.09;;;22.18;57.59
69717;BME280;67420;46.144;19.666;2023-11-21T10:12:40;99625.56;;;22.18;57.63
69717;BME280;67420;46.144;19.666;2023-11-21T10:22:44;99617.66;;;22.16;57.27
69717;BME280;67420;46.144;19.666;2023-11-21T10:32:46;99604.56;;;22.13;57.31
69717;BME280;67420;46.144;19.666;2023-11-21T10:42:48;99607.78;;;22.17;57.39
69717;BME280;67420;46.144;19.666;2023-11-21T10:52:52;99585.47;;;22.16;57.34
69717;BME280;67420;46.144;19.666;2023-11-21T11:02:54;99555.09;;;22.16;56.98
69717;BME280;67420;46.144;19.666;2023-11-21T11:12:58;99573.03;;;22.15;57.23
69717;BME280;67420;46.144;19.666;2023-11-21T11:34:11;99559.63;;;22.15;57.49
69717;BME280;67420;46.144;19.666;2023-11-21T11:54:55;99561.59;;;22.13;57.21
69717;BME280;67420;46.144;19.666;2023-11-21T12:04:57;99557.25;;;22.12;57.23
69717;BME280;67420;46.144;19.666;2023-11-21T12:14:59;99548.34;;;22.12;57.48
69717;BME280;67420;46.144;19.666;2023-11-21T12:25:01;99526.72;;;22.13;57.36
69717;BME280;67420;46.144;19.666;2023-11-21T12:35:04;99539.44;;;22.11;57.14
69717;BME280;67420;46.144;19.666;2023-11-21T12:55:22;99556.03;;;22.07;57.24
69717;BME280;67420;46.144;19.666;2023-11-21T13:05:29;99559.72;;;22.06;57.27
69717;BME280;67420;46.144;19.666;2023-11-21T13:15:31;99563.41;;;22.05;57.44
69717;BME280;67420;46.144;19.666;2023-11-21T13:25:34;99577.81;;;22.04;57.00
69717;BME280;67420;46.144;19.666;2023-11-21T13:35:38;99576.13;;;22.03;57.38
69717;BME280;67420;46.144;19.666;2023-11-21T13:45:44;99570.06;;;22.00;57.16
69717;BME280;67420;46.144;19.666;2023-11-21T13:55:48;99579.09;;;21.99;57.28
69717;BME280;67420;46.144;19.666;2023-11-21T14:05:50;99585.44;;;21.98;57.08
69717;BME280;67420;46.144;19.666;2023-11-21T14:15:53;99593.50;;;21.98;57.39
69717;BME280;67420;46.144;19.666;2023-11-21T14:26:02;99596.31;;;21.97;57.17
69717;BME280;67420;46.144;19.666;2023-11-21T14:36:05;99614.97;;;21.98;57.29
69717;BME280;67420;46.144;19.666;2023-11-21T14:46:10;99622.63;;;21.93;57.15
69717;BME280;67420;46.144;19.666;2023-11-21T14:56:17;99612.03;;;21.92;57.38
69717;BME280;67420;46.144;19.666;2023-11-21T15:06:28;99616.56;;;21.91;57.27
69717;BME280;67420;46.144;19.666;2023-11-21T15:16:31;99601.75;;;21.87;57.35
69717;BME280;67420;46.144;19.666;2023-11-21T15:26:33;99603.59;;;21.87;57.07
69717;BME280;67420;46.144;19.666;2023-11-21T15:36:35;99602.91;;;21.85;57.03
69717;BME280;67420;46.144;19.666;2023-11-21T15:46:38;99602.38;;;21.81;56.98
69717;BME280;67420;46.144;19.666;2023-11-21T15:56:43;99602.53;;;21.80;56.84
69717;BME280;67420;46.144;19.666;2023-11-21T16:06:47;99605.38;;;21.78;57.06
69717;BME280;67420;46.144;19.666;2023-11-21T16:16:49;99603.97;;;21.74;57.29
69717;BME280;67420;46.144;19.666;2023-11-21T16:26:51;99619.09;;;21.75;56.91
69717;BME280;67420;46.144;19.666;2023-11-21T16:36:56;99631.78;;;21.73;57.05
69717;BME280;67420;46.144;19.666;2023-11-21T16:46:58;99643.38;;;21.74;56.69
69717;BME280;67420;46.144;19.666;2023-11-21T16:57:07;99639.00;;;21.73;57.26
69717;BME280;67420;46.144;19.666;2023-11-21T17:07:10;99631.09;;;21.71;57.18
69717;BME280;67420;46.144;19.666;2023-11-21T17:17:13;99632.78;;;21.72;56.92
69717;BME280;67420;46.144;19.666;2023-11-21T17:27:16;99648.03;;;21.72;57.28
69717;BME280;67420;46.144;19.666;2023-11-21T17:37:19;99659.75;;;21.71;57.34
69717;BME280;67420;46.144;19.666;2023-11-21T17:47:22;99670.50;;;21.71;57.10
69717;BME280;67420;46.144;19.666;2023-11-21T17:57:26;99669.94;;;21.67;57.18
69717;BME280;67420;46.144;19.666;2023-11-21T18:07:28;99671.91;;;21.65;57.40
69717;BME280;67420;46.144;19.666;2023-11-21T18:17:30;99672.78;;;21.65;57.04
69717;BME280;67420;46.144;19.666;2023-11-21T18:27:33;99673.75;;;21.64;57.02
69717;BME280;67420;46.144;19.666;2023-11-21T18:37:37;99671.22;;;21.63;56.99
69717;BME280;67420;46.144;19.666;2023-11-21T18:47:39;99664.88;;;21.64;57.16
69717;BME280;67420;46.144;19.666;2023-11-21T18:57:41;99672.91;;;21.64;56.89
69717;BME280;67420;46.144;19.666;2023-11-21T19:07:43;99686.72;;;21.69;57.21
69717;BME280;67420;46.144;19.666;2023-11-21T19:17:45;99695.31;;;21.73;57.79
69717;BME280;67420;46.144;19.666;2023-11-21T19:27:47;99698.41;;;21.78;57.50
69717;BME280;67420;46.144;19.666;2023-11-21T19:37:50;99699.09;;;21.80;57.44
69717;BME280;67420;46.144;19.666;2023-11-21T19:47:54;99700.09;;;21.79;57.50
69717;BME280;67420;46.144;19.666;2023-11-21T19:57:56;99726.22;;;21.77;57.42
69717;BME280;67420;46.144;19.666;2023-11-21T20:07:58;99726.38;;;21.75;57.41
69717;BME280;67420;46.144;19.666;2023-11-21T20:18:01;99729.91;;;21.76;57.20
69717;BME280;67420;46.144;19.666;2023-11-21T20:28:04;99736.41;;;21.73;57.26
69717;BME280;67420;46.144;19.666;2023-11-21T20:38:06;99733.03;;;21.71;57.12
69717;BME280;67420;46.144;19.666;2023-11-21T20:48:09;99738.78;;;21.76;57.29
69717;BME280;67420;46.144;19.666;2023-11-21T20:58:13;99737.25;;;21.74;57.18
69717;BME280;67420;46.144;19.666;2023-11-21T21:08:15;99735.56;;;21.73;57.28
69717;BME280;67420;46.144;19.666;2023-11-21T21:18:17;99736.56;;;21.72;57.54
69717;BME280;67420;46.144;19.666;2023-11-21T21:28:19;99737.53;;;21.71;57.65
69717;BME280;67420;46.144;19.666;2023-11-21T21:38:21;99738.38;;;21.71;59.65
69717;BME280;67420;46.144;19.666;2023-11-21T21:48:23;99731.75;;;21.75;59.15
69717;BME280;67420;46.144;19.666;2023-11-21T21:58:26;99722.84;;;21.75;58.95
69717;BME280;67420;46.144;19.666;2023-11-21T22:08:28;99723.53;;;21.77;58.89
69717;BME280;67420;46.144;19.666;2023-11-21T22:18:30;99714.66;;;21.76;58.72
69717;BME280;67420;46.144;19.666;2023-11-21T22:28:32;99712.97;;;21.75;58.39
69717;BME280;67420;46.144;19.666;2023-11-21T22:38:35;99716.63;;;21.74;58.16
69717;BME280;67420;46.144;19.666;2023-11-21T22:48:37;99711.16;;;21.66;58.12
69717;BME280;67420;46.144;19.666;2023-11-21T22:58:39;99735.25;;;21.76;58.05
69717;BME280;67420;46.144;19.666;2023-11-21T23:08:41;99734.56;;;21.74;57.98
69717;BME280;67420;46.144;19.666;2023-11-21T23:18:44;99738.09;;;21.74;58.30
69717;BME280;67420;46.144;19.666;2023-11-21T23:28:51;99738.94;;;21.75;57.88
69717;BME280;67420;46.144;19.666;2023-11-21T23:38:53;99735.41;;;21.74;58.12
69717;BME280;67420;46.144;19.666;2023-11-21T23:48:55;99741.63;;;21.75;58.14
69717;BME280;67420;46.144;19.666;2023-11-21T23:58:57;99740.63;;;21.76;58.27
